East Hodge, Louisiana
Current Conditions -  °F | °C
As of 3:55 PM on Tuesday 25 Nov 2014 (Local Time) from KRSN Reporting Station
Clear Clear  
Wind Chill: 56°   Ceiling: Unl
Heat Index: 56°   Visibility: 10mi
Dew Point: 27°   Wind: 0mph
Humidity: 32%   Direction: NA
Pressure: 30.22"   Gusts: NA
Location:  32.2776°N, 92.713°W
Report Text: KRSN 252155Z AUTO 00000KT 10SM CLR 13/M03 A3022 RMK AO2 T01341029
Loading
Personal Weather Stations






























Interactive Weather Map New forecast layout! Learn more

10-Day Weather Forecast

Advertisements
Track Severe Weather on mobile